YVR weather

Vancouver International Airport
Vancouver, British Columbia, Canada

Public forecast

Using degrees Celsius for public forecast. Weather courtesy of forecast.io.

METAR (pilot weather report)

Retrieved 2017/03/29 08:00 UTC (1 hour ago):

CYVR 290800Z 09014KT 5SM RA BR BKN007 OVC012 08/07 A3005 RMK SF5NS3 SLP177

TAF (pilot weather forecast)

Retrieved 2017/03/29 09:49 UTC (0 seconds ago):

TAF CYVR 290840Z 2909/3012 10012KT 3SM -RA BR BKN007 OVC015 TEMPO 2909/2916 6SM -RA BR SCT008 OVC015 BECMG 2910/2912 10015KT FM291600 08015G25KT P6SM -RA FEW008 SCT015 OVC030 TEMPO 2916/2921 4SM -SHRA BR OVC015 FM292100 14012G22KT 6SM -RA BR OVC015 FM300000 20015G25KT P6SM SCT015 BKN040 BECMG 3004/3006 26010KT BECMG 3010/3012 28015G25KT RMK NXT FCST BY 291200Z